createdAt,value
2016-11-08T00:00:19.303Z,5.46
2016-11-08T00:01:28.966Z,5.44
2016-11-08T00:02:39.245Z,5.37
2016-11-08T00:03:48.901Z,5.36
2016-11-08T00:04:59.185Z,5.27
2016-11-08T00:06:09.154Z,5.39
2016-11-08T00:07:19.432Z,5.33
2016-11-08T00:08:29.733Z,5.39
2016-11-08T00:09:39.409Z,5.26
2016-11-08T00:10:49.676Z,5.34
2016-11-08T00:11:59.966Z,5.3
2016-11-08T00:13:09.320Z,5.24
2016-11-08T00:14:19.632Z,5.15
2016-11-08T00:15:29.293Z,5.16
2016-11-08T00:16:39.020Z,5.13
2016-11-08T00:17:49.307Z,4.98
2016-11-08T00:18:59.279Z,4.94
2016-11-08T00:20:08.675Z,5.03
2016-11-08T00:21:18.985Z,4.88
2016-11-08T00:22:29.260Z,4.91
2016-11-08T00:23:39.221Z,4.78
2016-11-08T00:24:48.921Z,4.88
2016-11-08T00:25:58.581Z,4.79
2016-11-08T00:27:08.854Z,4.9
2016-11-08T00:28:18.552Z,4.84
2016-11-08T00:29:28.524Z,4.83
2016-11-08T00:30:38.805Z,4.84
2016-11-08T00:31:48.787Z,4.85
2016-11-08T00:32:58.483Z,4.84
2016-11-08T00:34:08.752Z,4.9
2016-11-08T00:35:18.426Z,4.88
2016-11-08T00:36:28.689Z,4.84
2016-11-08T00:37:38.340Z,4.78
2016-11-08T00:38:48.004Z,4.78
2016-11-08T00:39:58.276Z,4.9
2016-11-08T00:41:08.548Z,4.84
2016-11-08T00:42:18.518Z,4.88
2016-11-08T00:43:28.499Z,4.83
2016-11-08T00:44:38.785Z,4.79
2016-11-08T00:45:48.134Z,4.79
2016-11-08T00:46:58.090Z,4.83
2016-11-08T00:48:08.066Z,4.83
2016-11-08T00:49:18.039Z,4.72
2016-11-08T00:50:27.695Z,4.69
2016-11-08T00:51:37.701Z,4.71
2016-11-08T00:52:47.714Z,4.68
2016-11-08T00:53:57.980Z,4.65
2016-11-08T00:55:08.265Z,4.53
2016-11-08T00:56:17.939Z,4.51
2016-11-08T00:57:27.920Z,4.42
2016-11-08T00:58:38.207Z,4.39
2016-11-08T00:59:48.474Z,4.36
2016-11-08T01:00:58.446Z,4.39
2016-11-08T01:02:08.110Z,4.4
2016-11-08T01:03:18.379Z,4.33
2016-11-08T01:04:28.025Z,4.33
2016-11-08T01:05:37.992Z,4.38
2016-11-08T01:06:47.957Z,4.33
2016-11-08T01:07:57.620Z,4.39
2016-11-08T01:09:07.578Z,4.36
2016-11-08T01:10:17.543Z,4.39
2016-11-08T01:11:27.834Z,4.35
2016-11-08T01:12:38.101Z,4.38
2016-11-08T01:13:48.083Z,4.47
2016-11-08T01:14:58.056Z,4.46
2016-11-08T01:16:07.726Z,4.36
2016-11-08T01:17:18.233Z,4.36
2016-11-08T01:18:28.243Z,4.4
2016-11-08T01:19:38.525Z,4.39
2016-11-08T01:20:48.494Z,4.44
2016-11-08T01:21:58.153Z,4.38
2016-11-08T01:23:07.515Z,4.33
2016-11-08T01:24:17.502Z,4.33
2016-11-08T01:25:27.163Z,4.3
2016-11-08T01:26:37.126Z,4.42
2016-11-08T01:27:47.144Z,4.46
2016-11-08T01:28:56.794Z,4.4
2016-11-08T01:30:06.492Z,4.35
2016-11-08T01:31:16.763Z,4.36
2016-11-08T01:32:27.063Z,4.32
2016-11-08T01:33:37.035Z,4.12
2016-11-08T01:34:46.693Z,4.21
2016-11-08T01:35:56.654Z,4.07
2016-11-08T01:37:06.926Z,4.04
2016-11-08T01:38:17.212Z,4.02
2016-11-08T01:39:27.495Z,3.94
2016-11-08T01:40:37.145Z,3.94
2016-11-08T01:41:47.147Z,3.96
2016-11-08T01:42:57.429Z,4.03
2016-11-08T01:44:07.708Z,4.1
2016-11-08T01:45:17.989Z,4.1
2016-11-08T01:46:27.965Z,4.14
2016-11-08T01:47:37.946Z,4.1
2016-11-08T01:48:48.223Z,4.07
2016-11-08T01:49:57.885Z,4.11
2016-11-08T01:51:07.541Z,4.04
2016-11-08T01:52:17.223Z,4.07
2016-11-08T01:53:27.224Z,4.08
2016-11-08T01:54:37.202Z,4.04
2016-11-08T01:55:47.163Z,4.08
2016-11-08T01:56:57.136Z,4.12
2016-11-08T01:58:07.413Z,4.11
2016-11-08T01:59:17.683Z,4.17
2016-11-08T02:00:27.342Z,4.12
2016-11-08T02:01:37.633Z,4.11
2016-11-08T02:02:47.919Z,4.04
2016-11-08T02:03:58.207Z,4.11
2016-11-08T02:05:08.488Z,4.11
2016-11-08T02:06:18.764Z,4.1
2016-11-08T02:07:29.120Z,4.12
2016-11-08T02:08:39.404Z,4.07
2016-11-08T02:09:49.680Z,4.02
2016-11-08T02:10:59.336Z,4.03
2016-11-08T02:12:09.607Z,3.97
2016-11-08T02:13:19.584Z,3.96
2016-11-08T02:14:29.851Z,4
2016-11-08T02:15:40.137Z,4.07
2016-11-08T02:16:50.109Z,4.07
2016-11-08T02:18:00.075Z,4.11
2016-11-08T02:19:10.357Z,4.08
2016-11-08T02:20:20.334Z,4.04
2016-11-08T02:21:30.314Z,4.15
2016-11-08T02:22:39.987Z,4.14
2016-11-08T02:23:50.301Z,4.1
2016-11-08T02:24:59.640Z,4.17
2016-11-08T02:26:09.598Z,4.18
2016-11-08T02:27:19.569Z,4.12
2016-11-08T02:28:29.542Z,4.2
2016-11-08T02:29:39.835Z,4.26
2016-11-08T02:30:49.816Z,4.17
2016-11-08T02:31:59.516Z,4.26
2016-11-08T02:33:09.798Z,4.17
2016-11-08T02:34:20.080Z,4.2
2016-11-08T02:35:29.732Z,4.26
2016-11-08T02:36:39.403Z,4.15
2016-11-08T02:37:49.715Z,4.18
2016-11-08T02:38:59.688Z,4.24
2016-11-08T02:40:09.654Z,4.24
2016-11-08T02:41:19.326Z,4.21
2016-11-08T02:42:29.602Z,4.3
2016-11-08T02:43:39.868Z,4.2
2016-11-08T02:44:49.828Z,4.32
2016-11-08T02:45:59.843Z,4.22
2016-11-08T02:47:10.129Z,4.28
2016-11-08T02:48:20.415Z,4.26
2016-11-08T02:49:30.107Z,4.29
2016-11-08T02:50:40.424Z,4.29
2016-11-08T02:51:50.385Z,4.22
2016-11-08T02:53:00.652Z,4.12
2016-11-08T02:54:10.629Z,4.21
2016-11-08T02:55:20.611Z,4.22
2016-11-08T02:56:30.903Z,4.21
2016-11-08T02:57:40.875Z,4.2
2016-11-08T02:58:50.847Z,4.1
2016-11-08T03:00:01.143Z,4.03
2016-11-08T03:32:00.300Z,0.5
2016-11-08T03:33:10.265Z,0.41
2016-11-08T03:34:20.532Z,0.41
2016-11-08T03:35:30.193Z,0.45
2016-11-08T03:36:40.461Z,0.63
2016-11-08T03:37:50.142Z,0.74
2016-11-08T03:39:00.104Z,0.92
2016-11-08T03:40:10.396Z,1.1
2016-11-08T03:41:20.368Z,1.32
2016-11-08T03:42:30.346Z,1.54
2016-11-08T03:43:40.656Z,1.72
2016-11-08T03:44:50.320Z,1.89
2016-11-08T03:46:00.606Z,2.12
2016-11-08T03:47:10.896Z,2.23
2016-11-08T03:48:20.865Z,2.41
2016-11-08T03:49:30.555Z,2.47
2016-11-08T03:50:40.840Z,2.69
2016-11-08T03:51:51.125Z,2.81
2016-11-08T03:53:01.130Z,2.93
2016-11-08T03:54:10.795Z,3.05
2016-11-08T03:55:20.769Z,3.19
2016-11-08T03:56:30.780Z,3.34
2016-11-08T03:57:40.453Z,3.39
2016-11-08T03:58:49.827Z,3.53
2016-11-08T04:00:00.111Z,3.61
2016-11-08T04:01:10.074Z,3.69
2016-11-08T04:02:20.068Z,3.82
2016-11-08T04:03:30.040Z,3.89
2016-11-08T04:04:40.052Z,3.94
2016-11-08T04:05:50.321Z,4.11
2016-11-08T04:06:59.996Z,4.12
2016-11-08T04:08:09.677Z,4.15
2016-11-08T04:09:19.669Z,4.26
2016-11-08T04:10:29.649Z,4.17
2016-11-08T04:11:39.607Z,4.28
2016-11-08T04:12:49.578Z,4.32
2016-11-08T04:13:59.577Z,4.32
2016-11-08T04:15:09.238Z,4.48
2016-11-08T04:16:19.199Z,4.48
2016-11-08T04:17:29.190Z,4.42
2016-11-08T04:18:39.471Z,4.48
2016-11-08T04:19:49.753Z,4.54
2016-11-08T04:21:00.039Z,4.53
2016-11-08T04:22:10.066Z,4.58
2016-11-08T04:23:20.038Z,4.64
2016-11-08T04:24:30.010Z,4.57
2016-11-08T04:25:39.977Z,4.61
2016-11-08T04:26:49.655Z,4.66
2016-11-08T04:27:59.945Z,4.66
2016-11-08T04:29:10.233Z,4.65
2016-11-08T04:30:20.201Z,4.72
2016-11-08T04:31:30.210Z,4.71
2016-11-08T04:32:39.868Z,4.74
2016-11-08T04:33:50.176Z,4.74
2016-11-08T04:35:00.455Z,4.76
2016-11-08T04:36:10.727Z,4.69
2016-11-08T04:37:20.388Z,4.74
2016-11-08T04:38:30.671Z,4.61
2016-11-08T04:39:40.649Z,4.72
2016-11-08T04:40:50.929Z,4.68
2016-11-08T04:42:00.891Z,4.74
2016-11-08T04:43:11.163Z,4.64
2016-11-08T04:44:21.438Z,4.68
2016-11-08T04:45:30.472Z,4.71
2016-11-08T04:46:40.441Z,4.66
2016-11-08T04:47:50.409Z,4.64
2016-11-08T04:49:00.071Z,4.65
2016-11-08T04:50:10.362Z,4.75
2016-11-08T04:51:20.639Z,4.68
2016-11-08T04:52:30.612Z,4.66
2016-11-08T04:53:40.907Z,4.61
2016-11-08T04:54:50.889Z,4.64
2016-11-08T04:56:00.536Z,4.61
2016-11-08T04:57:10.812Z,4.53
2016-11-08T04:58:20.481Z,4.57
2016-11-08T04:59:30.766Z,4.57
2016-11-08T05:00:41.092Z,4.6
2016-11-08T05:01:51.055Z,4.61
2016-11-08T05:03:01.335Z,4.65
2016-11-08T05:04:11.619Z,4.58
2016-11-08T05:05:21.584Z,4.53
2016-11-08T05:06:31.870Z,4.56
2016-11-08T05:07:42.154Z,4.57
2016-11-08T05:08:51.824Z,4.53
2016-11-08T05:10:02.095Z,4.57
2016-11-08T05:11:12.070Z,4.51
2016-11-08T05:12:22.038Z,4.5
2016-11-08T05:13:32.339Z,4.68
2016-11-08T05:14:42.352Z,4.72
2016-11-08T05:15:52.629Z,4.69
2016-11-08T05:17:02.291Z,4.69
2016-11-08T05:18:12.578Z,4.72
2016-11-08T05:19:22.259Z,4.75
2016-11-08T05:20:32.541Z,4.75
2016-11-08T05:21:42.813Z,4.72
2016-11-08T05:22:52.833Z,4.79
2016-11-08T05:24:03.135Z,4.83
2016-11-08T05:25:13.107Z,4.83
2016-11-08T05:26:23.089Z,4.84
2016-11-08T05:27:33.389Z,4.85
2016-11-08T05:28:43.663Z,4.88
2016-11-08T05:29:53.950Z,4.9
2016-11-08T05:31:04.241Z,4.95
2016-11-08T05:32:14.527Z,4.76
2016-11-08T05:33:24.829Z,4.79
2016-11-08T05:34:34.792Z,4.91
2016-11-08T05:35:44.772Z,4.83
2016-11-08T05:36:55.049Z,4.95
2016-11-08T05:38:05.343Z,4.94
2016-11-08T05:39:15.319Z,4.97
2016-11-08T05:40:24.980Z,5
2016-11-08T05:41:35.015Z,5
2016-11-08T05:42:45.308Z,4.94
2016-11-08T05:43:54.369Z,5.03
2016-11-08T05:45:04.341Z,5.08
2016-11-08T05:46:14.633Z,5.05
2016-11-08T05:47:24.919Z,4.98
2016-11-08T05:48:34.895Z,5.08
2016-11-08T05:49:44.558Z,5.13
2016-11-08T05:50:54.835Z,5.09
2016-11-08T05:52:04.196Z,5.09
2016-11-08T05:53:14.487Z,5.13
2016-11-08T05:54:24.459Z,5.08
2016-11-08T05:55:34.438Z,5.2
2016-11-08T05:56:44.104Z,5.06
2016-11-08T05:57:54.391Z,5.18
2016-11-08T05:59:04.058Z,5.23
2016-11-08T06:00:14.363Z,5.31
2016-11-08T06:01:24.329Z,5.24
2016-11-08T06:02:34.312Z,5.26
2016-11-08T06:03:44.597Z,5.31
2016-11-08T06:04:53.946Z,5.28
2016-11-08T06:06:04.231Z,5.3
2016-11-08T06:07:14.206Z,5.21
2016-11-08T06:08:24.169Z,5.21
2016-11-08T06:09:34.443Z,5.2
2016-11-08T06:10:44.747Z,5.18
2016-11-08T06:11:54.715Z,5.12
2016-11-08T06:13:04.421Z,5.23
2016-11-08T06:14:14.428Z,5.15
2016-11-08T06:15:24.401Z,5.21
2016-11-08T06:16:34.671Z,5.27
2016-11-08T06:17:44.947Z,5.24
2016-11-08T06:18:54.929Z,5.23
2016-11-08T06:20:04.610Z,5.31
2016-11-08T06:21:13.957Z,5.24
2016-11-08T06:22:24.237Z,5.33
2016-11-08T06:23:34.245Z,5.33
2016-11-08T06:24:44.537Z,5.34
2016-11-08T06:25:54.805Z,5.33
2016-11-08T06:27:05.129Z,5.3
2016-11-08T06:28:15.412Z,5.28
2016-11-08T06:29:25.373Z,5.27
2016-11-08T06:30:35.670Z,5.24
2016-11-08T06:31:45.968Z,5.26
2016-11-08T06:32:56.289Z,5.3
2016-11-08T06:34:05.975Z,5.28
2016-11-08T06:35:16.282Z,5.28
2016-11-08T06:36:26.560Z,5.44
2016-11-08T06:37:36.845Z,5.41
2016-11-08T06:38:46.812Z,5.45
2016-11-08T06:39:57.100Z,5.42
2016-11-08T06:41:07.111Z,5.36
2016-11-08T06:42:17.102Z,5.34
2016-11-08T06:43:27.404Z,5.24
2016-11-08T06:44:37.686Z,5.28
2016-11-08T06:45:47.968Z,5.21
2016-11-08T06:46:58.250Z,5.23
2016-11-08T06:48:08.230Z,5.12
2016-11-08T06:49:18.506Z,5.16
2016-11-08T06:50:28.189Z,5.06
2016-11-08T06:51:38.466Z,5.06
2016-11-08T06:52:48.747Z,5.06
2016-11-08T06:53:58.999Z,5.05
2016-11-08T06:55:08.649Z,5.16
2016-11-08T06:56:18.606Z,5.13
2016-11-08T06:57:28.873Z,5.21
2016-11-08T06:58:39.140Z,5.36
2016-11-08T06:59:49.096Z,5.34
2016-11-08T07:00:59.375Z,5.39
2016-11-08T07:02:09.650Z,5.52
2016-11-08T07:03:19.913Z,5.59
2016-11-08T07:04:29.874Z,5.55
2016-11-08T07:05:39.845Z,5.63
2016-11-08T07:06:49.812Z,5.6
2016-11-08T07:07:59.463Z,5.67
2016-11-08T07:09:09.421Z,5.69
2016-11-08T07:10:19.414Z,5.78
2016-11-08T07:11:29.680Z,5.85
2016-11-08T07:12:39.945Z,5.87
2016-11-08T07:13:49.641Z,5.88
2016-11-08T07:14:59.918Z,6.06
2016-11-08T07:16:09.887Z,6.14
2016-11-08T07:17:19.557Z,6.1
2016-11-08T07:18:29.517Z,6.07
2016-11-08T07:19:39.476Z,6.15
2016-11-08T07:20:49.781Z,6.26
2016-11-08T07:22:00.056Z,6.28
2016-11-08T07:23:10.011Z,6.33
2016-11-08T07:24:20.279Z,6.34
2016-11-08T07:25:30.554Z,6.47
2016-11-08T07:26:40.212Z,6.4
2016-11-08T07:27:50.702Z,6.43
2016-11-08T07:29:00.362Z,6.49
2016-11-08T07:30:10.329Z,6.47
2016-11-08T07:31:20.315Z,6.51
2016-11-08T07:32:30.280Z,6.52
2016-11-08T07:33:40.551Z,6.67
2016-11-08T07:34:50.838Z,6.6
2016-11-08T07:36:01.110Z,6.65
2016-11-08T07:37:11.098Z,6.75
2016-11-08T07:38:21.408Z,6.76
2016-11-08T07:39:31.669Z,6.76
2016-11-08T07:40:41.937Z,6.7
2016-11-08T07:41:52.199Z,6.76
2016-11-08T07:43:01.584Z,6.83
2016-11-08T07:44:11.882Z,6.8
2016-11-08T07:45:21.840Z,6.95
2016-11-08T07:46:32.105Z,7.01
2016-11-08T07:47:42.101Z,7.09
2016-11-08T07:48:52.454Z,7.16
2016-11-08T07:50:02.426Z,7.27
2016-11-08T07:51:12.691Z,7.33
2016-11-08T07:52:22.645Z,7.49
2016-11-08T07:53:32.942Z,7.51
2016-11-08T07:54:42.891Z,7.54
2016-11-08T07:55:53.159Z,7.56
2016-11-08T07:57:03.111Z,7.61
2016-11-08T07:58:13.101Z,7.61
2016-11-08T07:59:22.774Z,7.71
2016-11-08T08:00:33.045Z,7.67
2016-11-08T08:01:42.702Z,7.64
2016-11-08T08:02:52.692Z,7.74
2016-11-08T08:04:02.991Z,7.74
2016-11-08T08:05:13.267Z,7.75
2016-11-08T08:06:23.543Z,7.8
2016-11-08T08:07:33.810Z,7.85
2016-11-08T08:08:44.093Z,7.88
2016-11-08T08:09:54.380Z,7.88
2016-11-08T08:11:04.380Z,8.09
2016-11-08T08:12:14.067Z,8.06
2016-11-08T08:13:24.094Z,8.01
2016-11-08T08:14:34.092Z,8.09
2016-11-08T08:15:44.372Z,8.19
2016-11-08T08:16:54.639Z,8.17
2016-11-08T08:18:04.921Z,8.16
2016-11-08T08:19:14.907Z,8.21
2016-11-08T08:20:24.559Z,8.31
2016-11-08T08:21:34.549Z,8.35
2016-11-08T08:22:44.516Z,8.4
2016-11-08T08:23:54.772Z,8.39
2016-11-08T08:25:05.066Z,8.44
2016-11-08T08:26:15.050Z,8.54
2016-11-08T08:27:25.312Z,8.44
2016-11-08T08:28:35.269Z,8.6
2016-11-08T08:29:45.390Z,8.53
2016-11-08T08:30:55.352Z,8.65
2016-11-08T08:32:05.336Z,8.68
2016-11-08T08:33:15.601Z,8.72
2016-11-08T08:34:25.858Z,8.71
2016-11-08T08:35:35.506Z,8.65
2016-11-08T08:36:45.471Z,8.77
2016-11-08T08:37:55.129Z,8.77
2016-11-08T08:39:05.086Z,8.77
2016-11-08T08:40:14.742Z,8.8
2016-11-08T08:41:24.713Z,8.77
2016-11-08T08:42:34.980Z,8.77
2016-11-08T08:43:45.242Z,8.77
2016-11-08T08:44:55.203Z,8.74
2016-11-08T08:46:05.488Z,8.74
2016-11-08T08:47:15.827Z,8.92
2016-11-08T08:48:26.019Z,8.95
2016-11-08T08:49:35.979Z,8.9
2016-11-08T08:50:45.316Z,8.9
2016-11-08T08:51:54.963Z,8.94
2016-11-08T08:53:04.928Z,9.03
2016-11-08T08:54:14.575Z,9.11
2016-11-08T08:55:24.843Z,9.19
2016-11-08T08:56:34.793Z,9.29
2016-11-08T08:57:44.750Z,9.38
2016-11-08T08:58:54.719Z,9.5
2016-11-08T09:00:04.994Z,9.53
2016-11-08T09:01:14.965Z,9.53
2016-11-08T09:02:25.263Z,9.59
2016-11-08T09:03:35.548Z,9.64
2016-11-08T09:04:45.560Z,9.64
2016-11-08T09:05:55.887Z,9.64
2016-11-08T09:07:05.548Z,9.67
2016-11-08T09:08:14.891Z,9.74
2016-11-08T09:09:24.856Z,9.77
2016-11-08T09:10:35.139Z,9.77
2016-11-08T09:11:45.416Z,9.81
2016-11-08T09:12:55.681Z,9.95
2016-11-08T09:14:05.983Z,10.03
2016-11-08T09:15:16.264Z,10.11
2016-11-08T09:16:26.529Z,10.15
2016-11-08T09:17:36.834Z,10.26
2016-11-08T09:18:46.788Z,10.25
2016-11-08T09:19:57.060Z,10.32
2016-11-08T09:21:07.086Z,10.36
2016-11-08T09:22:17.361Z,10.39
2016-11-08T09:23:27.647Z,10.41
2016-11-08T09:24:37.309Z,10.44
2016-11-08T09:25:47.594Z,10.52
2016-11-08T09:26:56.954Z,10.52
2016-11-08T09:28:06.972Z,10.47
2016-11-08T09:29:17.254Z,10.49
2016-11-08T09:30:26.611Z,10.57
2016-11-08T09:31:36.574Z,10.67
2016-11-08T09:32:46.864Z,10.8
2016-11-08T09:33:56.822Z,10.85
2016-11-08T09:35:07.096Z,10.97
2016-11-08T09:36:17.525Z,10.91
2016-11-08T09:37:27.490Z,10.98
2016-11-08T09:38:37.773Z,11.18
2016-11-08T09:39:47.784Z,11.18
2016-11-08T09:40:58.074Z,11.26
2016-11-08T09:42:08.052Z,11.23
2016-11-08T09:43:18.317Z,11.24
2016-11-08T09:44:28.271Z,11.09
2016-11-08T09:45:38.568Z,11.05
2016-11-08T09:46:48.573Z,10.97
2016-11-08T09:47:58.240Z,10.85
2016-11-08T09:49:08.507Z,10.8
2016-11-08T09:50:18.158Z,10.8
2016-11-08T09:51:28.114Z,10.65
2016-11-08T09:52:37.766Z,10.69
2016-11-08T09:53:48.027Z,10.66
2016-11-08T09:54:58.300Z,10.69
2016-11-08T09:56:08.591Z,10.69
2016-11-08T09:57:18.854Z,10.57
2016-11-08T09:58:28.821Z,10.69
2016-11-08T09:59:38.477Z,10.63
2016-11-08T10:00:48.754Z,10.59
2016-11-08T10:01:58.424Z,10.55
2016-11-08T10:03:08.384Z,10.58
2016-11-08T10:04:18.651Z,10.49
2016-11-08T10:05:28.615Z,10.57
2016-11-08T10:06:38.597Z,10.67
2016-11-08T10:07:48.883Z,10.59
2016-11-08T10:08:59.148Z,10.67
2016-11-08T10:10:09.120Z,10.55
2016-11-08T10:11:19.382Z,10.46
2016-11-08T10:12:29.358Z,10.47
2016-11-08T10:13:39.630Z,10.52
2016-11-08T10:14:49.630Z,10.52
2016-11-08T10:15:59.917Z,10.52
2016-11-08T10:17:09.583Z,10.49
2016-11-08T10:18:19.860Z,10.54
2016-11-08T10:19:30.128Z,10.51
2016-11-08T10:20:40.406Z,10.44
2016-11-08T10:21:50.710Z,10.36
2016-11-08T10:23:00.998Z,10.36
2016-11-08T10:24:11.280Z,10.39
2016-11-08T10:25:21.571Z,10.38
2016-11-08T10:26:31.863Z,10.44
2016-11-08T10:27:41.858Z,10.42
2016-11-08T10:28:51.829Z,10.51
2016-11-08T10:30:01.504Z,10.52
2016-11-08T10:31:11.475Z,10.47
2016-11-08T10:32:21.754Z,10.52
2016-11-08T10:33:32.083Z,10.47
2016-11-08T10:34:42.067Z,10.55
2016-11-08T10:35:52.069Z,10.42
2016-11-08T10:37:02.057Z,10.44
2016-11-08T10:38:12.342Z,10.42
2016-11-08T10:39:22.319Z,10.28
2016-11-08T10:40:32.310Z,10.28
2016-11-08T10:41:42.612Z,10.23
2016-11-08T10:42:52.594Z,10.13
2016-11-08T10:44:02.560Z,10.07
2016-11-08T10:45:12.841Z,9.92
2016-11-08T10:46:23.145Z,9.82
2016-11-08T10:47:33.444Z,9.85
2016-11-08T10:48:43.768Z,9.81
2016-11-08T10:49:53.778Z,9.82
2016-11-08T10:51:04.114Z,9.84
2016-11-08T10:52:14.506Z,9.84
2016-11-08T10:53:24.828Z,9.93
2016-11-08T10:54:35.132Z,10.02
2016-11-08T10:55:45.165Z,10.02
2016-11-08T10:56:55.158Z,10.15
2016-11-08T10:58:05.455Z,10.21
2016-11-08T10:59:15.803Z,10.17
2016-11-08T11:00:25.824Z,10.32
2016-11-08T11:01:35.823Z,10.31
2016-11-08T11:02:46.148Z,10.44
2016-11-08T11:03:56.151Z,10.47
2016-11-08T11:05:06.442Z,10.54
2016-11-08T11:06:16.728Z,10.54
2016-11-08T11:07:27.063Z,10.61
2016-11-08T11:08:37.357Z,10.67
2016-11-08T11:09:47.684Z,10.69
2016-11-08T11:10:57.689Z,10.66
2016-11-08T11:12:07.657Z,10.79
2016-11-08T11:13:17.948Z,10.8
2016-11-08T11:14:28.276Z,10.85
2016-11-08T11:15:38.258Z,10.77
2016-11-08T11:16:48.539Z,10.79
2016-11-08T11:17:58.507Z,10.9
2016-11-08T11:19:08.792Z,10.85
2016-11-08T11:20:19.075Z,10.87
2016-11-08T11:21:29.386Z,10.98
2016-11-08T11:22:39.357Z,11.02
2016-11-08T11:23:49.355Z,11
2016-11-08T11:24:59.637Z,11.05
2016-11-08T11:26:09.612Z,11.13
2016-11-08T11:27:19.890Z,11.12
2016-11-08T11:28:30.173Z,11.23
2016-11-08T11:29:40.140Z,11.26
2016-11-08T11:30:50.145Z,11.42
2016-11-08T11:31:59.804Z,11.42
2016-11-08T11:33:09.169Z,11.42
2016-11-08T11:34:19.449Z,11.46
2016-11-08T11:35:29.139Z,11.46
2016-11-08T11:36:39.422Z,11.52
2016-11-08T11:37:49.398Z,11.56
2016-11-08T11:38:59.051Z,11.66
2016-11-08T11:40:09.031Z,11.64
2016-11-08T11:41:18.709Z,11.76
2016-11-08T11:42:28.994Z,11.75
2016-11-08T11:43:39.282Z,11.78
2016-11-08T11:44:49.573Z,11.84
2016-11-08T11:45:59.876Z,11.75
2016-11-08T11:47:09.864Z,11.76
2016-11-08T11:48:19.854Z,11.7
2016-11-08T11:49:29.550Z,11.6
2016-11-08T11:50:39.557Z,11.46
2016-11-08T11:51:49.595Z,11.34
2016-11-08T11:52:59.932Z,11.34
2016-11-08T11:54:09.895Z,11.24
2016-11-08T11:55:19.891Z,11.18
2016-11-08T11:56:30.193Z,11.18
2016-11-08T11:57:40.168Z,11.27
2016-11-08T11:58:49.871Z,11.23
2016-11-08T12:00:00.158Z,11.21
2016-11-08T12:01:10.458Z,11.33
2016-11-08T12:02:20.435Z,11.35
2016-11-08T12:03:30.713Z,11.51
2016-11-08T12:04:41.024Z,11.61
2016-11-08T12:05:51.296Z,11.7
2016-11-08T12:07:01.569Z,11.71
2016-11-08T12:08:11.851Z,11.86
2016-11-08T12:09:21.827Z,11.95
2016-11-08T12:10:31.809Z,11.89
2016-11-08T12:11:41.461Z,12.04
2016-11-08T12:12:51.454Z,12.16
2016-11-08T12:14:01.770Z,12.22
2016-11-08T12:15:11.751Z,12.34
2016-11-08T12:16:21.732Z,12.34
2016-11-08T12:17:32.029Z,12.4
2016-11-08T12:18:42.347Z,12.38
2016-11-08T12:19:52.644Z,12.48
2016-11-08T12:21:02.646Z,12.41
2016-11-08T12:22:12.933Z,12.4
2016-11-08T12:23:23.218Z,12.31
2016-11-08T12:24:33.521Z,12.25
2016-11-08T12:25:43.803Z,12.22
2016-11-08T12:26:54.081Z,12.2
2016-11-08T12:28:04.081Z,12.23
2016-11-08T12:29:14.049Z,12.2
2016-11-08T12:30:24.027Z,12.2
2016-11-08T12:31:34.313Z,12.22
2016-11-08T12:32:44.294Z,12.28
2016-11-08T12:33:53.946Z,12.29
2016-11-08T12:35:03.613Z,12.33
2016-11-08T12:36:13.922Z,12.37
2016-11-08T12:37:24.346Z,12.36
2016-11-08T12:38:34.318Z,12.41
2016-11-08T12:39:44.610Z,12.36
2016-11-08T12:40:54.920Z,12.22
2016-11-08T12:42:04.938Z,12.18
2016-11-08T12:43:14.928Z,12.1
2016-11-08T12:44:25.208Z,11.95
2016-11-08T12:45:35.485Z,12.03
2016-11-08T12:46:45.785Z,12
2016-11-08T12:47:56.132Z,12.08
2016-11-08T12:49:06.436Z,12.16
2016-11-08T12:50:16.401Z,12.2
2016-11-08T12:51:26.698Z,12.28
2016-11-08T12:52:36.708Z,12.22
2016-11-08T12:53:47.022Z,12.36
2016-11-08T12:54:56.990Z,12.55
2016-11-08T12:56:07.276Z,12.8
2016-11-08T12:57:17.613Z,12.89
2016-11-08T12:58:27.897Z,12.8
2016-11-08T12:59:37.916Z,12.61
2016-11-08T13:00:48.203Z,12.45
2016-11-08T13:01:58.484Z,12.2
2016-11-08T13:03:08.770Z,12
2016-11-08T13:04:18.743Z,11.86
2016-11-08T13:05:28.709Z,11.95
2016-11-08T13:06:39.041Z,11.85
2016-11-08T13:07:49.038Z,11.85
2016-11-08T13:08:59.358Z,11.79
2016-11-08T13:10:09.644Z,11.75
2016-11-08T13:11:19.936Z,11.7
2016-11-08T13:12:30.215Z,11.73
2016-11-08T13:13:39.881Z,11.71
2016-11-08T13:14:49.845Z,11.66
2016-11-08T13:16:00.111Z,11.63
2016-11-08T13:17:10.406Z,11.6
2016-11-08T13:18:20.699Z,11.61
2016-11-08T13:19:30.980Z,11.6
2016-11-08T13:20:41.276Z,11.59
2016-11-08T13:21:51.567Z,11.6
2016-11-08T13:23:01.552Z,11.67
2016-11-08T13:24:11.826Z,11.68
2016-11-08T13:25:21.502Z,11.7
2016-11-08T13:26:31.789Z,11.76
2016-11-08T13:27:41.816Z,11.67
2016-11-08T13:28:51.787Z,11.78
2016-11-08T13:30:01.771Z,11.76
2016-11-08T13:31:12.066Z,11.76
2016-11-08T13:32:22.353Z,11.66
2016-11-08T13:33:32.025Z,11.73
2016-11-08T13:34:42.331Z,11.59
2016-11-08T13:35:52.628Z,11.59
2016-11-08T13:37:02.906Z,11.57
2016-11-08T13:38:12.887Z,11.45
2016-11-08T13:39:23.159Z,11.52
2016-11-08T13:40:33.139Z,11.51
2016-11-08T13:41:42.239Z,11.46
2016-11-08T13:42:52.533Z,11.43
2016-11-08T13:44:02.816Z,11.41
2016-11-08T13:45:12.802Z,11.42
2016-11-08T13:46:22.773Z,11.35
2016-11-08T13:47:33.075Z,11.26
2016-11-08T13:48:43.358Z,11.34
2016-11-08T13:49:53.653Z,11.42
2016-11-08T13:51:03.946Z,11.42
2016-11-08T13:52:13.936Z,11.38
2016-11-08T13:53:24.056Z,11.33
2016-11-08T13:54:33.415Z,11.41
2016-11-08T13:55:43.412Z,11.31
2016-11-08T13:56:53.698Z,11.26
2016-11-08T13:58:03.054Z,11.35
2016-11-08T13:59:12.117Z,11.12
2016-11-08T14:00:22.114Z,11.16
2016-11-08T14:01:32.435Z,11.28
2016-11-08T14:02:42.727Z,11.13
2016-11-08T14:03:53.015Z,11.15
2016-11-08T14:05:03.345Z,11.18
2016-11-08T14:06:13.338Z,11.23
2016-11-08T14:07:23.626Z,11.18
2016-11-08T14:08:33.914Z,11.16
2016-11-08T14:09:43.582Z,11.24
2016-11-08T14:10:53.874Z,11.2
2016-11-08T14:12:03.875Z,11.2
2016-11-08T14:13:13.857Z,11.16
2016-11-08T14:14:23.839Z,11.28
2016-11-08T14:15:33.821Z,11.41
2016-11-08T14:16:43.517Z,11.41
2016-11-08T14:17:53.484Z,11.43
2016-11-08T14:19:03.476Z,11.41
2016-11-08T14:20:13.767Z,11.38
2016-11-08T14:21:24.055Z,11.24
2016-11-08T14:22:33.722Z,11.23
2016-11-08T14:23:43.995Z,11.13
2016-11-08T14:24:54.024Z,11.09
2016-11-08T14:26:04.000Z,11.02
2016-11-08T14:27:14.297Z,10.84
2016-11-08T14:28:24.595Z,10.79
2016-11-08T14:29:34.592Z,10.66
2016-11-08T14:30:44.892Z,10.58
2016-11-08T14:31:54.869Z,10.47
2016-11-08T14:33:05.167Z,10.39
2016-11-08T14:34:15.452Z,10.33
2016-11-08T14:35:25.760Z,10.39
2016-11-08T14:36:35.745Z,10.31
2016-11-08T14:37:46.029Z,10.29
2016-11-08T14:38:56.024Z,10.26
2016-11-08T14:40:06.378Z,10.26
2016-11-08T14:41:16.673Z,10.29
2016-11-08T14:42:26.654Z,10.23
2016-11-08T14:43:36.315Z,10.29
2016-11-08T14:44:45.988Z,10.23
2016-11-08T14:45:56.265Z,10.21
2016-11-08T14:47:06.237Z,10.21
2016-11-08T14:48:16.231Z,10.17
2016-11-08T14:49:26.209Z,10.17
2016-11-08T14:50:36.515Z,10.13
2016-11-08T14:51:46.488Z,9.95
2016-11-08T14:52:56.790Z,10
2016-11-08T14:54:06.451Z,9.95
2016-11-08T14:55:16.753Z,9.92
2016-11-08T14:56:26.434Z,9.84
2016-11-08T14:57:36.714Z,9.82
2016-11-08T14:58:47.004Z,9.72
2016-11-08T14:59:56.699Z,9.75
2016-11-08T15:01:07.065Z,9.64
2016-11-08T15:02:17.358Z,9.7
2016-11-08T15:03:27.629Z,9.7
2016-11-08T15:04:37.323Z,9.57
2016-11-08T15:05:47.322Z,9.59
2016-11-08T15:06:57.600Z,9.53
2016-11-08T15:08:07.981Z,9.48
2016-11-08T15:09:18.278Z,9.42
2016-11-08T15:10:28.269Z,9.35
2016-11-08T15:11:38.276Z,9.29
2016-11-08T15:12:48.563Z,9.3
2016-11-08T15:13:58.537Z,9.26
2016-11-08T15:15:08.526Z,9.21
2016-11-08T15:16:18.815Z,9.14
2016-11-08T15:17:29.139Z,9.05
2016-11-08T15:18:39.464Z,9.11
2016-11-08T15:19:49.487Z,9.04
2016-11-08T15:20:59.500Z,9.01
2016-11-08T15:22:09.206Z,8.94
2016-11-08T15:23:19.498Z,8.98
2016-11-08T15:24:29.180Z,8.95
2016-11-08T15:25:39.171Z,8.92
2016-11-08T15:26:49.154Z,8.89
2016-11-08T15:27:59.454Z,8.8
2016-11-08T15:29:09.130Z,8.76
2016-11-08T15:30:18.807Z,8.72
2016-11-08T15:31:28.825Z,8.71
2016-11-08T15:32:38.798Z,8.69
2016-11-08T15:33:49.162Z,8.64
2016-11-08T15:34:59.440Z,8.72
2016-11-08T15:36:09.457Z,8.76
2016-11-08T15:37:19.438Z,8.74
2016-11-08T15:38:29.740Z,8.69
2016-11-08T15:39:40.017Z,8.74
2016-11-08T15:40:50.303Z,8.72
2016-11-08T15:42:00.594Z,8.69
2016-11-08T15:43:10.881Z,8.65
2016-11-08T15:44:20.848Z,8.69
2016-11-08T15:45:31.146Z,8.61
2016-11-08T15:46:41.417Z,8.61
2016-11-08T15:47:50.795Z,8.65
2016-11-08T15:49:01.068Z,8.58
2016-11-08T15:50:11.335Z,8.61
2016-11-08T15:51:21.000Z,8.58
2016-11-08T15:52:30.659Z,8.53
2016-11-08T15:53:40.326Z,8.47
2016-11-08T15:54:50.022Z,8.49
2016-11-08T15:56:00.314Z,8.44